Current | Forecast
Updated: 5:15 PM CET on December 14, 2017
Observed at Papa, Hungary
Temperature 6°C
Windchill 4°C
Humidity 76%
Dew Point 2°C
Wind South at 11 km/h
Pressure 1005 hPa (Steady)
Conditions Clear
Visibility -
UV N/A
Clouds
Yesterday's Maximum 5°C
Yesterday's Minimum 1°C approx.
Yesterday's Heating Degree Days 28 approx.
Sunrise7:30 AM CET
Sunset4:01 PM CET
Moon Rise3:22 AM CET
Moon Set2:15 PM CET
Moon PhaseMoon Phase
Waning Crescent
Raw METARMETAR LHPA 141615Z 17006KT CAVOK 06/02 Q1005 NOSIG RMK BLU


Monday
. High: 64° F.
Tuesday
. High: 78° F.
Wednesday
. High: 82° F.
Thursday
. High: 73° F.
Friday
. High: 68° F.
Saturday
. High: 73° F.
Sunday
. High: 82° F.
Monday
. High: 71° F.

Units: English | Metric

Find the Weather for any City, State or Zipcode, or Country:

U.S. State List | Severe Weather | Tropical Storms | Ski Conditions
United States | Canada | Central America | South America | Asia | Europe | Australia | Africa | Islands

Weather Underground

© Copyright 2017
The Weather Company, LLC